Airfield :







YOU CAN JOIN US ON...

 
LOGIN :

Register | Disclaimer

   EN    FR    IT 

 









Legend :    VFR   Marginal VFR   IFR   Intensive IFR   Very Intensive IFR
Visi :
Ceiling :
>= 8 km
>= 3000ft
5 to 8 km
1000 to 3000 ft
1500m to 5 km
500 to 1000 ft
800 to 1500m
200 to 500 ft
< 800m
< 200 ft
Symbols :   Thunderstorms  Fog  Heavy snow  Heavy precipitations  Wind > 20 kt







- Airport Elevation : 68 ft
- IATA code : YFC


CYFC - Fredericton

CURRENT METAR :
  • 270040Z AUTO 08006KT 9SM OVC043 16/16 A3014 RMK SLP208

EXPIRED METARs :
  • 270014Z AUTO 07006KT 8SM -RA OVC043 16/16 A3013 RMK SLP206
  • 270003Z AUTO 08004KT 9SM OVC043 16/16 A3014 RMK SLP208
  • 262346Z AUTO 08007KT 9SM -RA OVC043 16/16 A3013 RMK SLP205
  • 262308Z AUTO 09006KT 9SM OVC041 16/16 A3012 RMK SLP203
  • 262251Z AUTO 09005KT 6SM -RA FEW006 OVC039 16/ A3012 RMK TD MISG SLP202
  • 262229Z AUTO 08004KT 3SM RA SCT006 SCT016 BKN032 OVC042 16/ A3011 RMK TD MISG SLP199
  • 262212Z AUTO 12006KT 2SM RA BR FEW006 BKN012 BKN022 OVC042 16/16 A3012 RMK VIS VRB 1 1/4-3 SLP201
  • 262155Z AUTO 09004KT 060V180 2 1/2SM -RA BR SCT006 BKN017 OVC041 16/16 A3011 RMK SLP200

TAF TAF CYFC
Valid from the 27 at 00:00 until the 27 at 12:00 UTC


262341Z 2700/2712 09007KT P6SM SCT007 OVC040
TEMPO 2700/2704 2SM -SHRA BR BKN007 OVC015
FM270400 14006KT 6SM BR SCT005 OVC010
TEMPO 2704/2708 5SM -DZ -RA BR BKN005 OVC010
FM270800 16007KT 2SM -DZ -RA BR OVC004
BECMG 2709/2711 P6SM NSW SCT004 OVC010 RMK FCST BASED ON AUTO OBS. NXT FCST BY 270600Z
CZQM FIR / North America



MET'MAP, your aeronautical weather chart ! - Copyright ORBIFLY December 2007 - Disclaimer

ORBIFLY MET'MAP TEAM :

Programming & Development : Alexandra Zaïnal
Concept & Development : Baudouin d'Aumeries
Co-Development & Prog : Marc-Olivier Méhu
Technical & hardware support : Manuel Goepfert

Contact : metmap@orbifly.com




SOURCES & CREDITS :

   NOAA